Time;durP1;ratioP1;P1;durP2;ratioP2;P2;SDS_P1;SDS_P2;PMS_P1;PMS_P2;Temp;Humidity;BMP_temperature;BMP_pressure;BME280_temperature;BME280_humidity;BME280_pressure;Samples;Min_cycle;Max_cycle;Signal;HPM_P1;HPM_P2
2021/01/10 00:00:30;;;;;;;58.50;22.20;;;;;;;-2.28;82.31;101097.68;1749942;82;20983;-37
2021/01/10 00:02:58;;;;;;;165.70;25.20;;;;;;;-2.30;82.29;101099.28;1749971;81;20935;-34
2021/01/10 00:05:32;;;;;;;49.18;19.00;;;;;;;-2.33;82.26;101098.77;1750022;82;20880;-36
2021/01/10 00:08:00;;;;;;;307.90;35.60;;;;;;;-2.34;82.26;101107.17;1749702;82;21117;-36
2021/01/10 00:10:29;;;;;;;69.03;20.77;;;;;;;-2.34;82.29;101113.52;1750005;82;22557;-35
2021/01/10 00:13:02;;;;;;;238.15;27.02;;;;;;;-2.35;82.33;101118.13;1722360;82;20924;-36
2021/01/10 00:15:31;;;;;;;205.83;26.95;;;;;;;-2.34;82.27;101115.17;1750042;82;21485;-35
2021/01/10 00:18:00;;;;;;;93.75;22.25;;;;;;;-2.35;82.29;101112.17;1750007;82;21055;-34
2021/01/10 00:20:28;;;;;;;206.55;28.12;;;;;;;-2.31;82.18;101111.11;1749992;82;20912;-34
2021/01/10 00:22:57;;;;;;;130.03;22.37;;;;;;;-2.29;82.12;101116.66;1749942;82;21358;-36
2021/01/10 00:25:25;;;;;;;140.03;23.85;;;;;;;-2.32;82.15;101114.45;1749857;82;21465;-35
2021/01/10 00:27:53;;;;;;;339.00;41.35;;;;;;;-2.30;82.04;101108.16;1749912;82;21003;-34
2021/01/10 00:30:22;;;;;;;540.95;47.90;;;;;;;-2.29;81.96;101111.58;1749970;82;20935;-35
2021/01/10 00:32:53;;;;;;;757.55;55.98;;;;;;;-2.32;81.99;101112.30;1749932;82;20987;-36
2021/01/10 00:35:22;;;;;;;702.62;55.00;;;;;;;-2.36;82.11;101110.05;1743714;81;21387;-35
2021/01/10 00:37:55;;;;;;;465.80;45.67;;;;;;;-2.36;82.17;101106.62;1735881;82;20993;-34
2021/01/10 00:40:24;;;;;;;337.52;33.90;;;;;;;-2.34;82.12;101113.91;1735950;82;21053;-36
2021/01/10 00:42:52;;;;;;;505.80;44.48;;;;;;;-2.32;81.95;101108.11;1735863;82;21134;-36
2021/01/10 00:45:20;;;;;;;500.07;45.75;;;;;;;-2.32;81.85;101104.69;1736044;82;20996;-35
2021/01/10 00:47:53;;;;;;;372.80;40.30;;;;;;;-2.33;81.86;101104.22;1735675;82;21376;-35
2021/01/10 00:50:20;;;;;;;577.67;57.70;;;;;;;-2.34;81.86;101101.22;1736040;82;20976;-36
2021/01/10 00:52:48;;;;;;;518.97;45.78;;;;;;;-2.31;81.74;101106.05;1735924;82;20983;-36
2021/01/10 00:55:18;;;;;;;1914.00;149.27;;;;;;;-2.33;81.74;101101.69;1735976;82;21008;-36
2021/01/10 00:57:47;;;;;;;1278.70;110.28;;;;;;;-2.33;81.76;101100.03;1736031;82;21276;-36
2021/01/10 01:00:18;;;;;;;1027.63;91.08;;;;;;;-2.33;81.76;101096.62;1736000;82;21266;-36
2021/01/10 01:02:48;;;;;;;1991.30;155.05;;;;;;;-2.34;81.80;101092.34;1735816;82;20980;-34
2021/01/10 01:05:19;;;;;;;1001.25;90.95;;;;;;;-2.35;81.85;101095.30;1735968;82;20976;-36
2021/01/10 01:07:48;;;;;;;819.43;61.95;;;;;;;-2.34;81.84;101097.41;1735898;82;20968;-38
2021/01/10 01:10:19;;;;;;;258.32;29.40;;;;;;;-2.34;81.84;101093.61;1736014;82;21031;-35
2021/01/10 01:12:48;;;;;;;621.83;47.80;;;;;;;-2.38;81.80;101092.62;1735860;82;22144;-36
2021/01/10 01:15:18;;;;;;;554.95;39.65;;;;;;;-2.36;81.82;101100.28;1735878;82;21154;-37
2021/01/10 01:17:46;;;;;;;687.23;47.75;;;;;;;-2.38;81.87;101094.28;1735875;82;21003;-36
2021/01/10 01:20:14;;;;;;;786.73;56.02;;;;;;;-2.39;81.92;101090.89;1735939;82;20928;-35
2021/01/10 01:22:43;;;;;;;1918.75;129.50;;;;;;;-2.42;81.96;101092.00;1735948;82;20951;-36
2021/01/10 01:25:12;;;;;;;1121.38;74.27;;;;;;;-2.43;82.01;101091.53;1735912;82;21332;-35
2021/01/10 01:27:40;;;;;;;1151.78;98.37;;;;;;;-2.45;81.97;101091.86;1735780;82;21031;-36
2021/01/10 01:30:11;;;;;;;1205.45;85.90;;;;;;;-2.48;82.03;101093.00;1735964;82;21431;-36
2021/01/10 01:32:38;;;;;;;1016.78;67.00;;;;;;;-2.51;82.12;101082.72;1735945;82;21042;-37
2021/01/10 01:35:08;;;;;;;364.17;39.58;;;;;;;-2.53;82.20;101091.92;1737635;81;20913;-36
2021/01/10 01:37:36;;;;;;;662.67;54.60;;;;;;;-2.57;82.36;101089.64;1749918;82;21137;-36
2021/01/10 01:40:06;;;;;;;221.87;25.57;;;;;;;-2.60;82.54;101088.23;1749825;82;20939;-36
2021/01/10 01:42:34;;;;;;;318.63;31.35;;;;;;;-2.62;82.56;101095.79;1749928;82;20932;-36
2021/01/10 01:45:06;;;;;;;320.50;28.87;;;;;;;-2.64;82.64;101096.12;1749890;82;21154;-36
2021/01/10 01:47:34;;;;;;;342.15;28.52;;;;;;;-2.63;82.68;101098.24;1749971;82;20983;-36
2021/01/10 01:50:05;;;;;;;379.27;31.62;;;;;;;-2.66;82.75;101099.38;1749946;82;22264;-35
2021/01/10 01:52:34;;;;;;;482.12;40.60;;;;;;;-2.68;82.84;101095.90;1749932;82;20907;-36
2021/01/10 01:55:05;;;;;;;1274.85;98.50;;;;;;;-2.72;82.95;101103.75;1749888;82;21007;-36
2021/01/10 01:57:32;;;;;;;1300.40;111.57;;;;;;;-2.76;83.02;101112.02;1749908;82;20987;-35
2021/01/10 02:00:02;;;;;;;561.77;57.05;;;;;;;-2.82;83.13;101109.20;1749804;82;20964;-37
2021/01/10 02:02:33;;;;;;;1325.43;140.35;;;;;;;-2.87;83.30;101113.20;1748406;82;22050;-35
2021/01/10 02:05:08;;;;;;;288.73;35.73;;;;;;;-2.90;83.49;101109.72;1749703;82;21023;-36
2021/01/10 02:07:58;;;;;;;1256.65;104.07;;;;;;;-2.93;83.56;101103.22;1749579;82;20939;-36
2021/01/10 02:10:30;;;;;;;895.95;80.60;;;;;;;-2.94;83.69;101107.81;1749894;82;20931;-37
2021/01/10 02:12:59;;;;;;;391.32;41.25;;;;;;;-2.97;83.82;101106.41;1749918;82;20912;-35
2021/01/10 02:15:32;;;;;;;223.47;27.75;;;;;;;-2.98;83.88;101111.42;1749769;82;21276;-36
2021/01/10 02:18:03;;;;;;;558.02;40.28;;;;;;;-3.01;83.94;101105.80;1749751;82;20991;-36
2021/01/10 02:20:34;;;;;;;175.35;25.82;;;;;;;-3.04;84.04;101102.70;1749872;82;20983;-35
2021/01/10 02:23:19;;;;;;;276.20;29.37;;;;;;;-3.04;84.08;101109.45;1749778;82;21030;-37
2021/01/10 02:25:49;;;;;;;288.68;27.13;;;;;;;-3.07;84.12;101110.58;1750264;82;20975;-36
2021/01/10 02:28:22;;;;;;;204.32;27.00;;;;;;;-3.12;84.25;101114.56;1749857;82;21373;-37
2021/01/10 02:30:51;;;;;;;99.55;22.32;;;;;;;-3.10;84.41;101118.03;1749828;82;20979;-35
2021/01/10 02:33:44;;;;;;;84.90;21.07;;;;;;;-3.11;84.47;101123.90;1722740;82;21011;-36
2021/01/10 02:36:29;;;;;;;64.40;19.75;;;;;;;-3.12;84.48;101123.02;1744590;81;21003;-34
2021/01/10 02:39:05;;;;;;;58.35;19.90;;;;;;;-3.15;84.49;101116.95;1734053;82;20916;-34
2021/01/10 02:41:43;;;;;;;39.53;19.90;;;;;;;-3.18;84.55;101124.84;1735934;82;22253;-35
2021/01/10 02:44:19;;;;;;;108.97;22.27;;;;;;;-3.21;84.62;101128.50;1735778;82;21008;-34
2021/01/10 02:46:48;;;;;;;;;;;;;;;-3.23;84.68;101126.30;1738455;82;20976;-35
2021/01/10 02:49:18;;;;;;;191.43;26.70;;;;;;;-3.26;84.80;101127.41;1735881;82;20693;-34
2021/01/10 02:51:49;;;;;;;42.80;19.85;;;;;;;-3.24;85.01;101130.89;1735900;82;21003;-35
2021/01/10 02:54:18;;;;;;;70.20;20.52;;;;;;;-3.22;85.05;101128.03;1735850;82;21415;-34
2021/01/10 02:57:03;;;;;;;33.67;18.20;;;;;;;-3.22;85.09;101122.97;1735781;82;20980;-34
2021/01/10 02:59:33;;;;;;;46.68;19.15;;;;;;;-3.19;85.08;101127.32;1735873;82;20968;-35
2021/01/10 03:02:03;;;;;;;41.35;19.48;;;;;;;-3.21;85.03;101122.59;1735804;82;20979;-34
2021/01/10 03:04:31;;;;;;;56.20;20.65;;;;;;;-3.21;85.04;101122.17;1735830;82;21494;-38
2021/01/10 03:07:00;;;;;;;51.18;19.42;;;;;;;-3.18;85.05;101120.20;1691906;82;22770;-37
2021/01/10 03:09:28;;;;;;;54.23;21.60;;;;;;;-3.18;85.07;101117.25;1735846;82;20900;-36
2021/01/10 03:11:56;;;;;;;48.90;19.12;;;;;;;-3.15;85.03;101115.69;1715196;82;20939;-34
2021/01/10 03:14:24;;;;;;;114.85;21.45;;;;;;;-3.15;85.00;101117.80;1735827;82;21015;-34
2021/01/10 03:16:51;;;;;;;77.17;20.77;;;;;;;-3.17;85.00;101118.13;1735818;82;20940;-37
2021/01/10 03:19:20;;;;;;;65.28;20.72;;;;;;;-3.20;84.97;101115.45;1735843;82;21370;-37
2021/01/10 03:21:48;;;;;;;48.50;19.73;;;;;;;-3.20;85.08;101118.84;1735797;82;21054;-36
2021/01/10 03:24:15;;;;;;;37.53;18.40;;;;;;;-3.19;85.05;101115.51;1735832;82;20937;-37
2021/01/10 03:26:45;;;;;;;32.93;18.48;;;;;;;-3.20;85.00;101120.52;1735797;82;21007;-35
2021/01/10 03:29:14;;;;;;;30.45;17.77;;;;;;;-3.23;85.05;101115.31;1735829;82;20928;-37
2021/01/10 03:31:42;;;;;;;44.90;19.48;;;;;;;-3.25;85.06;101116.48;1735896;82;21386;-36
2021/01/10 03:34:11;;;;;;;48.38;21.50;;;;;;;-3.26;85.11;101118.55;1735839;82;20999;-37
2021/01/10 03:36:39;;;;;;;90.90;22.13;;;;;;;-3.25;85.18;101118.17;1741521;81;21132;-37
2021/01/10 03:39:07;;;;;;;31.93;18.30;;;;;;;-3.24;85.22;101122.02;1749676;82;20911;-35
2021/01/10 03:41:35;;;;;;;30.95;18.65;;;;;;;-3.27;85.25;101121.87;1749876;82;21042;-35
2021/01/10 03:44:03;;;;;;;32.13;18.42;;;;;;;-3.25;85.22;101134.22;1749787;82;21208;-35
2021/01/10 03:46:32;;;;;;;34.48;18.32;;;;;;;-3.25;85.26;101134.63;1749782;82;20959;-36
2021/01/10 03:52:02;;;;;;;40.88;20.68;;;;;;;-3.29;85.26;101121.31;1816126;79;22668;-35
2021/01/10 03:54:30;;;;;;;37.93;18.80;;;;;;;-3.36;85.36;101128.63;1789322;80;20990;-34
2021/01/10 03:56:58;;;;;;;35.10;18.65;;;;;;;-3.36;85.52;101127.36;1789270;80;21207;-35
2021/01/10 03:59:26;;;;;;;43.10;21.27;;;;;;;-3.37;85.56;101120.55;1789119;80;20986;-34
2021/01/10 04:01:54;;;;;;;38.42;20.27;;;;;;;-3.38;85.60;101122.62;1789245;80;21036;-34
2021/01/10 04:04:22;;;;;;;34.03;19.95;;;;;;;-3.39;85.64;101127.21;1789261;80;20919;-34
2021/01/10 04:06:50;;;;;;;38.92;19.42;;;;;;;-3.41;85.69;101128.80;1789287;80;20911;-35
2021/01/10 04:09:18;;;;;;;36.98;18.65;;;;;;;-3.44;85.71;101121.05;1789194;80;21250;-34
2021/01/10 04:11:46;;;;;;;35.15;19.48;;;;;;;-3.47;85.85;101129.36;1789187;80;21069;-35
2021/01/10 04:14:14;;;;;;;35.17;19.07;;;;;;;-3.47;85.91;101128.51;1789262;80;21002;-35
2021/01/10 04:16:42;;;;;;;34.90;19.23;;;;;;;-3.46;85.99;101134.89;1789161;80;20979;-36
2021/01/10 04:19:11;;;;;;;44.83;21.85;;;;;;;-3.47;86.01;101139.90;1789257;80;20999;-35
2021/01/10 04:21:39;;;;;;;35.95;19.20;;;;;;;-3.47;86.05;101142.43;1789277;80;21090;-35
2021/01/10 04:24:07;;;;;;;34.08;18.82;;;;;;;-3.51;86.07;101137.59;1789121;80;20935;-35
2021/01/10 04:26:48;;;;;;;40.03;20.77;;;;;;;-3.49;86.16;101145.28;1789245;80;21577;-36
2021/01/10 04:29:19;;;;;;;38.20;20.65;;;;;;;-3.48;86.23;101148.29;1761223;80;20994;-36
2021/01/10 04:31:50;;;;;;;35.80;19.70;;;;;;;-3.46;86.28;101151.77;1789172;80;21026;-35
2021/01/10 04:34:19;;;;;;;37.42;20.23;;;;;;;-3.48;86.28;101150.41;1788943;80;21224;-37
2021/01/10 04:36:47;;;;;;;34.33;19.30;;;;;;;-3.48;86.35;101161.80;1789238;80;21010;-35
2021/01/10 04:39:16;;;;;;;33.23;19.00;;;;;;;-3.47;86.35;101161.00;1789228;80;21022;-36
2021/01/10 04:41:44;;;;;;;31.95;19.27;;;;;;;-3.49;86.36;101174.40;1789133;80;21062;-34
2021/01/10 04:44:14;;;;;;;36.73;20.52;;;;;;;-3.50;86.46;101176.05;1758524;80;21049;-37
2021/01/10 04:46:43;;;;;;;33.25;18.67;;;;;;;-3.46;86.50;101175.81;1759140;80;22257;-38
2021/01/10 04:49:11;;;;;;;37.48;19.60;;;;;;;-3.46;86.53;101185.53;1758717;80;20943;-34
2021/01/10 04:51:39;;;;;;;39.45;19.55;;;;;;;-3.46;86.50;101187.21;1734619;81;20915;-37
2021/01/10 04:54:09;;;;;;;46.83;20.60;;;;;;;-3.44;86.62;101192.33;1755283;81;21218;-36
2021/01/10 04:59:11;;;;;;;36.35;19.98;;;;;;;-3.37;86.59;101189.34;1890173;76;21921;-34
2021/01/10 05:01:49;;;;;;;38.30;20.57;;;;;;;-3.39;86.54;101202.33;1861181;77;22179;-34
2021/01/10 05:04:16;;;;;;;36.77;19.30;;;;;;;-3.40;86.53;101204.38;1860701;77;21357;-35
2021/01/10 05:06:44;;;;;;;43.33;21.60;;;;;;;-3.34;86.52;101199.62;1828715;77;20973;-35
2021/01/10 05:09:12;;;;;;;43.95;21.75;;;;;;;-3.30;86.36;101196.44;1791707;78;21047;-33
2021/01/10 05:11:42;;;;;;;37.58;20.85;;;;;;;-3.27;86.25;101205.45;1823381;78;20906;-37
2021/01/10 05:14:10;;;;;;;34.50;19.77;;;;;;;-3.27;86.13;101202.07;1823312;78;20960;-36
2021/01/10 05:16:39;;;;;;;34.88;20.57;;;;;;;-3.34;86.11;101206.80;1823273;78;21329;-35
2021/01/10 05:19:07;;;;;;;32.17;18.62;;;;;;;-3.35;86.12;101215.61;1765065;78;21015;-35
2021/01/10 05:21:35;;;;;;;29.05;18.35;;;;;;;-3.38;86.12;101212.92;1823381;78;20968;-36
2021/01/10 05:24:03;;;;;;;37.23;19.55;;;;;;;-3.39;86.13;101222.58;1823202;78;21028;-34
2021/01/10 05:26:32;;;;;;;43.25;19.27;;;;;;;-3.39;86.25;101218.78;1823354;78;22188;-37
2021/01/10 05:29:09;;;;;;;37.67;20.15;;;;;;;-3.38;86.25;101215.45;1822666;78;22373;-35
2021/01/10 05:31:42;;;;;;;36.45;19.67;;;;;;;-3.36;86.24;101223.59;1823440;78;21019;-36
2021/01/10 05:34:16;;;;;;;33.95;19.85;;;;;;;-3.38;86.15;101221.79;1823238;78;20969;-35
2021/01/10 05:36:44;;;;;;;36.68;21.33;;;;;;;-3.42;86.13;101223.66;1823292;78;20992;-37
2021/01/10 05:39:22;;;;;;;36.30;20.75;;;;;;;-3.49;86.19;101224.63;1823196;78;20929;-35
2021/01/10 05:42:00;;;;;;;33.45;19.23;;;;;;;-3.51;86.26;101229.16;1823372;78;21195;-34
2021/01/10 05:44:41;;;;;;;37.05;20.23;;;;;;;-3.54;86.33;101227.32;1823238;78;21047;-36
2021/01/10 05:47:12;;;;;;;34.92;19.37;;;;;;;-3.52;86.44;101235.86;1822160;78;20980;-36
2021/01/10 05:49:53;;;;;;;36.25;20.80;;;;;;;-3.46;86.52;101243.77;1823228;78;20877;-35
2021/01/10 05:52:22;;;;;;;38.02;20.20;;;;;;;-3.41;86.49;101245.66;1823356;78;21309;-35
2021/01/10 05:54:59;;;;;;;34.78;19.98;;;;;;;-3.40;86.40;101247.43;1823192;78;21339;-35
2021/01/10 05:57:28;;;;;;;33.05;19.35;;;;;;;-3.39;86.33;101251.28;1821068;78;21164;-36
2021/01/10 05:59:56;;;;;;;33.75;19.95;;;;;;;-3.39;86.34;101247.48;1823178;78;21467;-36
2021/01/10 06:02:33;;;;;;;35.90;20.65;;;;;;;-3.36;86.35;101256.92;1823193;78;20964;-39
2021/01/10 06:05:18;;;;;;;39.73;20.15;;;;;;;-3.31;86.30;101261.81;1823267;78;20921;-36
2021/01/10 06:07:48;;;;;;;36.73;21.40;;;;;;;-3.27;86.19;101262.85;1823278;78;21364;-35
2021/01/10 06:10:29;;;;;;;36.65;19.27;;;;;;;-3.22;86.20;101261.42;1822619;78;21500;-36
2021/01/10 06:13:05;;;;;;;34.98;19.60;;;;;;;-3.19;86.11;101261.16;1822703;78;20917;-36
2021/01/10 06:15:35;;;;;;;35.65;18.85;;;;;;;-3.12;85.95;101260.22;1822785;78;20984;-38
2021/01/10 06:18:05;;;;;;;42.03;21.23;;;;;;;-3.05;85.71;101261.00;1822717;78;20999;-36
2021/01/10 06:20:35;;;;;;;33.53;19.92;;;;;;;-3.00;85.49;101267.16;1822683;78;22566;-34
2021/01/10 06:23:05;;;;;;;39.53;19.65;;;;;;;-2.97;85.35;101266.04;1822544;78;20984;-36
2021/01/10 06:25:37;;;;;;;32.58;18.77;;;;;;;-2.89;85.05;101261.36;1822643;78;21012;-35
2021/01/10 06:28:13;;;;;;;40.73;20.05;;;;;;;-2.84;84.78;101263.72;1822686;78;21035;-36
2021/01/10 06:30:59;;;;;;;32.35;18.50;;;;;;;-2.79;84.61;101269.88;1822749;78;20915;-35
2021/01/10 06:33:32;;;;;;;33.10;18.42;;;;;;;-2.78;84.37;101266.58;1822699;78;21345;-35
2021/01/10 06:36:06;;;;;;;35.13;20.43;;;;;;;-2.77;84.19;101271.23;1822598;78;20940;-36
2021/01/10 06:38:36;;;;;;;35.45;19.48;;;;;;;-2.77;84.09;101280.10;1822598;78;20968;-36
2021/01/10 06:41:21;;;;;;;34.70;20.35;;;;;;;-2.77;83.95;101283.91;1822542;78;20957;-36
2021/01/10 06:43:52;;;;;;;34.18;19.50;;;;;;;-2.77;83.89;101288.98;1822706;78;20957;-42
2021/01/10 06:46:20;;;;;;;34.43;20.08;;;;;;;-2.79;83.91;101296.91;1822766;78;22039;-38
2021/01/10 06:48:48;;;;;;;33.80;19.27;;;;;;;-2.79;83.92;101304.09;1791086;78;20941;-36
2021/01/10 06:51:20;;;;;;;32.53;18.85;;;;;;;-2.78;83.95;101297.38;1791662;78;21396;-37
2021/01/10 06:53:50;;;;;;;33.75;19.25;;;;;;;-2.72;83.96;101301.47;1791671;78;20984;-36
2021/01/10 06:56:18;;;;;;;35.85;18.90;;;;;;;-2.69;83.89;101295.70;1822516;78;20960;-36
2021/01/10 06:59:14;;;;;;;29.90;18.60;;;;;;;-2.69;83.89;101300.36;1791048;78;21562;-34
2021/01/10 07:01:53;;;;;;;37.33;19.27;;;;;;;-2.66;83.87;101296.70;1822711;78;20920;-34
2021/01/10 07:04:54;;;;;;;40.83;20.02;;;;;;;-2.62;83.83;101296.08;1822757;78;21000;-35
2021/01/10 07:07:37;;;;;;;35.15;20.62;;;;;;;-2.56;83.77;101304.77;1822524;78;20908;-33
2021/01/10 07:10:09;;;;;;;41.28;22.82;;;;;;;-2.54;83.81;101301.91;1822623;78;20968;-33
2021/01/10 07:12:36;;;;;;;42.58;21.93;;;;;;;-2.48;83.72;101306.01;1822675;78;21370;-33
2021/01/10 07:15:23;;;;;;;42.08;21.90;;;;;;;-2.46;83.58;101304.03;1822605;78;20976;-34
2021/01/10 07:18:09;;;;;;;35.92;20.60;;;;;;;-2.41;83.42;101304.64;1822596;78;20920;-35
2021/01/10 07:20:41;;;;;;;39.75;20.92;;;;;;;-2.42;83.34;101305.44;1822486;78;20941;-35
2021/01/10 07:23:27;;;;;;;34.98;20.82;;;;;;;-2.43;83.24;101315.97;1822637;78;20973;-34
2021/01/10 07:25:56;;;;;;;32.58;19.77;;;;;;;-2.46;83.23;101310.37;1822785;78;22835;-34
2021/01/10 07:28:32;;;;;;;31.95;19.10;;;;;;;-2.46;83.21;101312.02;1822600;78;21051;-34
2021/01/10 07:31:13;;;;;;;35.35;19.80;;;;;;;-2.49;83.30;101328.36;1822604;78;20892;-37
2021/01/10 07:33:41;;;;;;;37.80;21.15;;;;;;;-2.41;83.42;101327.47;1822556;78;20936;-36
2021/01/10 07:36:10;;;;;;;44.10;22.82;;;;;;;-2.35;83.45;101322.69;1822599;78;20921;-35
2021/01/10 07:38:41;;;;;;;38.30;21.62;;;;;;;-2.28;83.29;101322.17;1822603;78;21445;-35
2021/01/10 07:41:27;;;;;;;37.38;21.70;;;;;;;-2.23;83.22;101322.02;1822557;78;20964;-35
2021/01/10 07:43:57;;;;;;;33.45;19.82;;;;;;;-2.18;83.17;101319.30;1822677;78;21027;-35
2021/01/10 07:46:57;;;;;;;41.40;22.22;;;;;;;-2.08;82.85;101314.27;1822631;78;20929;-34
2021/01/10 07:49:28;;;;;;;34.40;19.48;;;;;;;-1.99;82.61;101315.48;1815285;78;20988;-34
2021/01/10 07:51:56;;;;;;;40.12;20.35;;;;;;;-1.93;82.38;101317.03;1822590;78;21370;-35
2021/01/10 07:54:55;;;;;;;39.98;21.15;;;;;;;-1.88;82.28;101313.91;1822504;78;21003;-36
2021/01/10 07:57:30;;;;;;;45.92;23.55;;;;;;;-1.83;82.27;101313.25;1796625;78;21057;-35
2021/01/10 08:00:22;;;;;;;41.40;22.15;;;;;;;-1.78;82.12;101311.41;1822331;78;20928;-34
2021/01/10 08:03:09;;;;;;;50.55;22.85;;;;;;;-1.69;81.70;101317.31;1822553;78;20865;-35
2021/01/10 08:05:41;;;;;;;41.08;22.42;;;;;;;-1.63;81.34;101316.73;1822565;78;21196;-35
2021/01/10 08:08:17;;;;;;;36.80;21.20;;;;;;;-1.61;81.17;101299.89;1822508;78;21011;-35
2021/01/10 08:10:54;;;;;;;48.15;22.60;;;;;;;-1.55;80.92;101304.34;1822692;78;21004;-35
2021/01/10 08:13:40;;;;;;;42.25;21.45;;;;;;;-1.52;80.96;101300.28;1822665;78;20905;-36
2021/01/10 08:16:12;;;;;;;38.05;20.82;;;;;;;-1.45;80.67;101298.48;1822766;78;21047;-35
2021/01/10 08:18:44;;;;;;;39.30;21.85;;;;;;;-1.40;80.49;101302.89;1822025;78;21498;-34
2021/01/10 08:21:15;;;;;;;43.05;21.20;;;;;;;-1.32;80.24;101299.03;1822502;78;21423;-35
2021/01/10 08:23:55;;;;;;;42.17;23.07;;;;;;;-1.32;80.19;101293.95;1822526;78;21019;-34
2021/01/10 08:26:23;;;;;;;47.73;21.95;;;;;;;-1.25;80.32;101290.87;1822576;78;20991;-34
2021/01/10 08:28:54;;;;;;;38.05;21.30;;;;;;;-1.17;80.01;101284.85;1822469;78;20984;-35
2021/01/10 08:31:25;;;;;;;37.00;20.80;;;;;;;-1.15;80.08;101287.05;1822727;78;21510;-34
2021/01/10 08:34:09;;;;;;;40.03;22.05;;;;;;;-1.07;80.18;101291.20;1822495;78;21027;-35
2021/01/10 08:36:37;;;;;;;39.88;21.00;;;;;;;-0.99;80.15;101291.53;1822392;78;20900;-35
2021/01/10 08:39:09;;;;;;;37.75;20.52;;;;;;;-0.92;79.90;101287.17;1822559;78;21506;-35
2021/01/10 08:41:42;;;;;;;58.05;21.93;;;;;;;-0.88;79.50;101286.09;1822439;78;20936;-35
2021/01/10 08:44:18;;;;;;;40.25;21.60;;;;;;;-0.80;79.14;101276.64;1822624;78;21475;-35
2021/01/10 08:46:49;;;;;;;37.67;18.85;;;;;;;-0.78;79.18;101281.38;1822525;78;20988;-36
2021/01/10 08:49:19;;;;;;;34.45;19.27;;;;;;;-0.73;78.88;101272.27;1822552;78;21503;-35
2021/01/10 08:51:51;;;;;;;33.98;19.32;;;;;;;-0.68;78.93;101277.55;1822649;78;21507;-36
2021/01/10 08:54:22;;;;;;;36.33;20.20;;;;;;;-0.62;79.03;101272.70;1822595;78;21102;-36
2021/01/10 08:56:52;;;;;;;36.40;21.33;;;;;;;-0.55;78.27;101274.67;1822644;78;21195;-36
2021/01/10 08:59:22;;;;;;;49.95;23.95;;;;;;;-0.51;78.27;101269.32;1822389;78;20937;-35
2021/01/10 09:01:50;;;;;;;40.35;22.62;;;;;;;-0.44;78.09;101267.09;1822525;78;20941;-36
2021/01/10 09:04:19;;;;;;;39.45;20.95;;;;;;;-0.40;77.72;101266.78;1822587;78;20996;-37
2021/01/10 09:07:04;;;;;;;36.90;20.92;;;;;;;-0.36;77.84;101254.67;1822537;78;20945;-36
2021/01/10 09:09:50;;;;;;;36.77;20.80;;;;;;;-0.27;77.59;101260.50;1822406;78;21211;-36
2021/01/10 09:12:41;;;;;;;37.05;21.57;;;;;;;-0.20;77.67;101261.22;1796629;78;20996;-37
2021/01/10 09:15:24;;;;;;;47.45;21.00;;;;;;;-0.08;77.25;101258.28;1822476;78;20960;-35
2021/01/10 09:17:56;;;;;;;42.58;21.97;;;;;;;0.01;76.65;101261.98;1822360;78;21518;-38
2021/01/10 09:20:33;;;;;;;44.13;20.50;;;;;;;0.05;76.22;101254.91;1822607;78;21008;-35
2021/01/10 09:23:08;;;;;;;;;;;;;;;0.08;76.00;101258.84;1825170;78;21364;-36
2021/01/10 09:25:36;;;;;;;38.95;20.48;;;;;;;0.09;75.42;101254.21;1822437;78;20160;-37
2021/01/10 09:28:18;;;;;;;42.38;21.68;;;;;;;0.11;75.88;101255.13;1822475;78;20995;-36
2021/01/10 09:30:52;;;;;;;40.70;20.68;;;;;;;0.18;76.00;101254.58;1822434;78;21514;-38
2021/01/10 09:33:31;;;;;;;39.25;20.50;;;;;;;0.30;75.69;101252.88;1822565;78;21102;-35
2021/01/10 09:36:01;;;;;;;36.73;20.82;;;;;;;0.36;75.72;101252.22;1822527;78;21267;-34
2021/01/10 09:38:31;;;;;;;58.70;20.80;;;;;;;0.49;74.54;101244.61;1815272;78;21042;-36
2021/01/10 09:41:05;;;;;;;40.98;19.75;;;;;;;0.51;73.77;101240.04;1780932;80;20927;-36
2021/01/10 09:43:40;;;;;;;34.90;20.08;;;;;;;0.49;73.64;101242.94;1782009;80;21176;-36
2021/01/10 09:46:32;;;;;;;40.20;20.10;;;;;;;0.52;73.13;101242.20;1787199;80;21001;-35
2021/01/10 09:49:05;;;;;;;33.95;16.35;;;;;;;0.56;73.35;101244.03;1782680;79;22302;-37
2021/01/10 09:51:44;;;;;;;32.33;17.00;;;;;;;0.61;71.49;101251.42;1793232;79;21062;-36
2021/01/10 09:54:23;;;;;;;36.15;16.97;;;;;;;0.67;71.34;101253.34;1774891;80;21471;-38
2021/01/10 09:57:01;;;;;;;39.85;17.15;;;;;;;0.72;70.33;101251.80;1814776;78;20931;-37
2021/01/10 09:59:56;;;;;;;44.20;17.42;;;;;;;0.74;70.70;101248.90;1777752;80;20872;-35
2021/01/10 10:02:36;;;;;;;28.38;16.40;;;;;;;0.83;69.21;101241.56;1793257;79;21448;-36
2021/01/10 10:05:14;;;;;;;32.23;15.95;;;;;;;0.93;67.79;101245.72;1785400;80;20982;-36
2021/01/10 10:07:45;;;;;;;26.48;14.58;;;;;;;0.95;67.96;101242.81;1794544;80;20883;-37
2021/01/10 10:10:28;;;;;;;31.00;15.18;;;;;;;1.05;65.94;101233.78;1794550;80;21005;-38
2021/01/10 10:13:10;;;;;;;69.75;15.15;;;;;;;1.04;66.68;101230.78;1793668;80;20989;-36
2021/01/10 10:15:45;;;;;;;68.15;14.38;;;;;;;1.14;64.95;101241.34;1785653;80;21206;-36
2021/01/10 10:18:23;;;;;;;25.92;12.90;;;;;;;1.12;64.28;101241.66;1781870;80;21601;-37
2021/01/10 10:20:52;;;;;;;33.73;14.23;;;;;;;1.13;64.83;101230.64;1781695;80;20927;-36
2021/01/10 10:23:21;;;;;;;27.70;13.08;;;;;;;1.18;63.69;101233.36;1785157;80;21433;-37
2021/01/10 10:25:50;;;;;;;166.40;17.25;;;;;;;1.19;64.22;101234.23;1784131;80;20931;-36
2021/01/10 10:28:20;;;;;;;34.20;12.25;;;;;;;1.22;63.74;101233.06;1788819;80;21506;-37
2021/01/10 10:30:48;;;;;;;93.12;15.45;;;;;;;1.17;63.93;101235.88;1817383;79;21007;-37
2021/01/10 10:33:16;;;;;;;23.22;13.85;;;;;;;1.13;64.34;101226.82;1814030;78;20975;-36
2021/01/10 10:35:44;;;;;;;21.82;13.83;;;;;;;1.10;64.61;101233.09;1813162;77;21560;-36
2021/01/10 10:38:12;;;;;;;344.00;29.65;;;;;;;1.10;65.40;101232.25;1779160;80;20948;-36
2021/01/10 10:40:40;;;;;;;53.23;15.68;;;;;;;1.19;64.87;101239.34;1790347;78;21213;-36
2021/01/10 10:43:08;;;;;;;35.63;15.40;;;;;;;1.12;65.12;101231.89;1818032;78;21034;-36
2021/01/10 10:45:37;;;;;;;76.72;17.07;;;;;;;1.06;65.56;101232.55;1807581;78;20996;-36
2021/01/10 10:48:06;;;;;;;29.07;15.80;;;;;;;1.07;65.82;101229.17;1818009;78;21019;-36
2021/01/10 10:50:35;;;;;;;27.52;16.10;;;;;;;1.02;66.58;101240.91;1816332;79;20962;-36
2021/01/10 10:53:08;;;;;;;25.52;15.40;;;;;;;1.03;66.47;101232.45;1815546;79;21198;-37
2021/01/10 10:55:36;;;;;;;26.62;15.38;;;;;;;1.01;66.95;101240.45;1821515;78;20967;-34
2021/01/10 10:58:05;;;;;;;28.00;15.55;;;;;;;1.05;67.14;101237.19;1767733;79;20995;-36
2021/01/10 11:00:35;;;;;;;27.17;17.00;;;;;;;1.09;67.23;101235.62;1788477;80;20987;-35
2021/01/10 11:03:05;;;;;;;29.05;16.00;;;;;;;1.09;66.67;101231.37;1794181;78;21013;-34
2021/01/10 11:05:34;;;;;;;27.93;16.65;;;;;;;0.98;67.42;101230.16;1813076;78;21639;-35
2021/01/10 11:08:03;;;;;;;27.02;16.05;;;;;;;1.05;66.83;101234.64;1751370;81;21011;-37
2021/01/10 11:10:30;;;;;;;27.55;14.90;;;;;;;1.00;67.57;101233.63;1728643;80;21042;-37
2021/01/10 11:12:59;;;;;;;23.52;14.53;;;;;;;0.97;67.58;101237.34;1767216;80;20983;-37
2021/01/10 11:15:27;;;;;;;23.35;14.75;;;;;;;0.99;67.93;101240.39;1766682;80;20986;-36
2021/01/10 11:17:55;;;;;;;28.35;15.90;;;;;;;1.10;67.73;101240.75;1802555;79;22159;-35
2021/01/10 11:20:26;;;;;;;23.00;13.83;;;;;;;1.26;66.81;101237.44;1810742;78;21023;-34
2021/01/10 11:22:57;;;;;;;23.80;15.60;;;;;;;1.30;66.78;101232.89;1787896;79;20986;-36
2021/01/10 11:25:26;;;;;;;26.42;16.00;;;;;;;1.40;67.04;101240.03;1778755;79;21010;-35
2021/01/10 11:27:54;;;;;;;126.85;20.45;;;;;;;1.52;66.38;101238.28;1796979;79;20974;-35
